createdAt,value
2023-10-19T00:00:14.221Z,97434.03
2023-10-19T00:02:42.912Z,97431.09
2023-10-19T00:05:11.072Z,97427.38
2023-10-19T00:07:38.611Z,97423.72
2023-10-19T00:10:07.773Z,97422.47
2023-10-19T00:12:36.904Z,97421.03
2023-10-19T00:15:05.622Z,97417.34
2023-10-19T00:17:33.220Z,97419.84
2023-10-19T00:20:00.811Z,97420.19
2023-10-19T00:22:28.963Z,97426.53
2023-10-19T00:24:57.058Z,97426.84
2023-10-19T00:27:25.153Z,97421.47
2023-10-19T00:29:54.683Z,97425.38
2023-10-19T00:32:23.784Z,97427.66
2023-10-19T00:34:52.083Z,97427.03
2023-10-19T00:37:20.808Z,97427.47
2023-10-19T00:39:49.503Z,97428.47
2023-10-19T00:42:17.023Z,97430.38
2023-10-19T00:44:45.181Z,97437.34
2023-10-19T00:47:15.865Z,97446.09
2023-10-19T00:49:44.026Z,97440.50
2023-10-19T00:52:11.772Z,97446.63
2023-10-19T00:54:42.626Z,97449.41
2023-10-19T00:57:10.868Z,97449.19
2023-10-19T00:59:39.242Z,97441.75
2023-10-19T01:02:07.979Z,97444.44
2023-10-19T01:04:37.609Z,97442.72
2023-10-19T01:07:05.150Z,97452.91
2023-10-19T01:09:33.952Z,97435.13
2023-10-19T01:12:02.067Z,97446.72
2023-10-19T01:14:31.873Z,97452.94
2023-10-19T01:17:02.748Z,97448.78
2023-10-19T01:19:30.461Z,97451.84
2023-10-19T01:21:59.459Z,97449.31
2023-10-19T01:24:28.735Z,97445.00
2023-10-19T01:26:56.400Z,97448.88
2023-10-19T01:29:23.938Z,97453.66
2023-10-19T01:31:52.186Z,97448.44
2023-10-19T01:34:20.336Z,97445.56
2023-10-19T01:36:47.918Z,97447.88
2023-10-19T01:39:16.916Z,97451.03
2023-10-19T01:41:47.599Z,97460.53
2023-10-19T01:44:15.508Z,97459.50
2023-10-19T01:46:43.721Z,97458.22
2023-10-19T01:49:11.442Z,97463.34
2023-10-19T01:51:39.182Z,97469.56
2023-10-19T01:54:07.540Z,97470.47
2023-10-19T01:56:35.602Z,97478.13
2023-10-19T01:59:05.571Z,97465.63
2023-10-19T02:01:34.052Z,97473.91
2023-10-19T02:04:05.029Z,97469.66
2023-10-19T02:06:33.933Z,97474.63
2023-10-19T02:09:03.986Z,97472.97
2023-10-19T02:11:31.709Z,97466.56
2023-10-19T02:13:59.325Z,97468.66
2023-10-19T02:16:28.496Z,97469.84
2023-10-19T02:18:56.403Z,97477.31
2023-10-19T02:21:24.252Z,97471.50
2023-10-19T02:23:52.153Z,97480.59
2023-10-19T02:26:19.976Z,97480.00
2023-10-19T02:28:47.920Z,97485.75
2023-10-19T02:31:15.643Z,97489.09
2023-10-19T02:33:45.216Z,97498.75
2023-10-19T02:36:13.139Z,97507.91
2023-10-19T02:38:41.709Z,97499.44
2023-10-19T02:41:09.299Z,97507.91
2023-10-19T02:43:37.907Z,97508.97
2023-10-19T02:46:06.216Z,97518.41
2023-10-19T02:48:34.345Z,97521.94
2023-10-19T02:51:03.632Z,97524.81
2023-10-19T02:53:31.742Z,97523.97
2023-10-19T02:55:59.346Z,97530.19
2023-10-19T02:58:27.483Z,97528.53
2023-10-19T03:00:55.794Z,97523.97
2023-10-19T03:03:24.378Z,97522.28
2023-10-19T03:05:52.512Z,97526.41
2023-10-19T03:08:22.366Z,97529.94
2023-10-19T03:10:50.563Z,97524.50
2023-10-19T03:13:19.232Z,97530.13
2023-10-19T03:15:47.627Z,97525.06
2023-10-19T03:18:15.232Z,97526.53
2023-10-19T03:20:44.093Z,97517.41
2023-10-19T03:23:11.618Z,97514.25
2023-10-19T03:25:40.772Z,97514.75
2023-10-19T03:28:08.475Z,97523.00
2023-10-19T03:30:36.957Z,97532.75
2023-10-19T03:33:05.211Z,97537.69
2023-10-19T03:35:35.164Z,97534.38
2023-10-19T03:38:02.742Z,97538.47
2023-10-19T03:40:30.736Z,97539.75
2023-10-19T03:43:02.176Z,97549.41
2023-10-19T03:45:31.076Z,97550.06
2023-10-19T03:47:58.574Z,97551.13
2023-10-19T03:50:26.775Z,97553.19
2023-10-19T03:52:54.877Z,97555.44
2023-10-19T03:55:22.629Z,97561.66
2023-10-19T03:57:50.735Z,97558.13
2023-10-19T04:00:20.735Z,97566.84
2023-10-19T04:02:48.987Z,97559.16
2023-10-19T04:05:17.832Z,97564.53
2023-10-19T04:07:45.487Z,97574.91
2023-10-19T04:10:13.524Z,97570.34
2023-10-19T04:12:42.225Z,97574.06
2023-10-19T04:15:10.654Z,97576.47
2023-10-19T04:17:40.606Z,97586.47
2023-10-19T04:20:09.221Z,97591.88
2023-10-19T04:22:36.857Z,97584.00
2023-10-19T04:25:05.402Z,97581.09
2023-10-19T04:27:33.296Z,97588.75
2023-10-19T04:30:00.824Z,97596.34
2023-10-19T04:32:28.439Z,97603.59
2023-10-19T04:34:58.730Z,97599.09
2023-10-19T04:37:25.907Z,97595.88
2023-10-19T04:39:53.683Z,97605.34
2023-10-19T04:42:22.337Z,97610.16
2023-10-19T04:44:49.878Z,97614.47
2023-10-19T04:47:17.564Z,97627.25
2023-10-19T04:49:45.298Z,97619.31
2023-10-19T04:52:14.421Z,97620.66
2023-10-19T04:54:42.265Z,97619.34
2023-10-19T04:57:09.984Z,97621.38
2023-10-19T04:59:37.668Z,97620.44
2023-10-19T05:02:05.255Z,97624.06
2023-10-19T05:04:33.141Z,97625.91
2023-10-19T05:07:01.189Z,97620.97
2023-10-19T05:09:30.293Z,97638.56
2023-10-19T05:11:57.882Z,97631.72
2023-10-19T05:14:25.471Z,97636.06
2023-10-19T05:16:53.167Z,97637.09
2023-10-19T05:19:20.799Z,97632.28
2023-10-19T05:21:48.403Z,97643.66
2023-10-19T05:24:16.010Z,97640.97
2023-10-19T05:26:45.309Z,97648.53
2023-10-19T05:29:13.177Z,97648.31
2023-10-19T05:31:41.423Z,97650.31
2023-10-19T05:34:09.504Z,97655.81
2023-10-19T05:36:37.603Z,97642.00
2023-10-19T05:39:06.243Z,97650.28
2023-10-19T05:41:34.030Z,97664.22
2023-10-19T05:44:03.277Z,97662.88
2023-10-19T05:46:32.100Z,97670.03
2023-10-19T05:48:59.756Z,97675.44
2023-10-19T05:51:27.323Z,97672.22
2023-10-19T05:53:55.441Z,97676.88
2023-10-19T05:56:23.819Z,97679.25
2023-10-19T05:58:52.019Z,97670.53
2023-10-19T06:01:21.748Z,97680.88
2023-10-19T06:03:49.516Z,97686.69
2023-10-19T06:06:17.188Z,97693.06
2023-10-19T06:08:44.843Z,97692.28
2023-10-19T06:11:12.563Z,97680.34
2023-10-19T06:13:40.125Z,97691.53
2023-10-19T06:16:07.932Z,97684.28
2023-10-19T06:18:38.263Z,97684.25
2023-10-19T06:21:06.558Z,97674.66
2023-10-19T06:23:35.119Z,97686.19
2023-10-19T06:26:11.156Z,97679.88
2023-10-19T06:28:39.581Z,97670.16
2023-10-19T06:31:07.613Z,97674.50
2023-10-19T06:33:37.629Z,97679.81
2023-10-19T06:36:07.168Z,97683.38
2023-10-19T06:38:34.728Z,97689.75
2023-10-19T06:41:02.373Z,97701.00
2023-10-19T06:43:31.773Z,97700.69
2023-10-19T06:46:01.682Z,97689.13
2023-10-19T06:48:30.139Z,97704.97
2023-10-19T06:50:59.812Z,97699.22
2023-10-19T06:53:27.828Z,97708.59
2023-10-19T06:55:56.218Z,97706.09
2023-10-19T06:58:24.188Z,97709.25
2023-10-19T07:00:52.085Z,97701.00
2023-10-19T07:03:20.419Z,97718.19
2023-10-19T07:05:48.166Z,97727.13
2023-10-19T07:08:17.754Z,97729.06
2023-10-19T07:10:46.005Z,97733.41
2023-10-19T07:13:13.532Z,97740.09
2023-10-19T07:15:41.122Z,97737.19
2023-10-19T07:18:09.888Z,97745.66
2023-10-19T07:20:39.224Z,97738.22
2023-10-19T07:23:07.235Z,97750.63
2023-10-19T07:25:37.885Z,97747.75
2023-10-19T07:28:05.901Z,97752.84
2023-10-19T07:30:33.887Z,97746.28
2023-10-19T07:33:02.151Z,97756.00
2023-10-19T07:35:29.889Z,97753.25
2023-10-19T07:37:57.667Z,97751.84
2023-10-19T07:40:26.829Z,97759.44
2023-10-19T07:42:56.336Z,97767.63
2023-10-19T07:45:23.973Z,97770.16
2023-10-19T07:47:51.693Z,97770.88
2023-10-19T07:50:19.654Z,97770.88
2023-10-19T07:52:48.254Z,97767.50
2023-10-19T07:55:16.935Z,97778.56
2023-10-19T07:57:44.795Z,97782.00
2023-10-19T08:00:14.442Z,97776.00
2023-10-19T08:02:41.755Z,97777.19
2023-10-19T08:05:09.807Z,97783.97
2023-10-19T08:07:37.540Z,97783.38
2023-10-19T08:10:05.935Z,97785.13
2023-10-19T08:12:33.527Z,97788.88
2023-10-19T08:15:01.154Z,97803.06
2023-10-19T08:17:30.964Z,97798.09
2023-10-19T08:19:58.725Z,97799.53
2023-10-19T08:22:26.332Z,97797.41
2023-10-19T08:24:54.435Z,97789.69
2023-10-19T08:27:22.740Z,97802.53
2023-10-19T08:29:50.823Z,97813.78
2023-10-19T08:32:19.569Z,97806.53
2023-10-19T08:34:50.231Z,97819.88
2023-10-19T08:37:17.825Z,97811.25
2023-10-19T08:39:45.505Z,97816.75
2023-10-19T08:42:13.107Z,97816.69
2023-10-19T08:44:41.325Z,97818.81
2023-10-19T08:47:09.094Z,97824.72
2023-10-19T08:49:38.029Z,97814.47
2023-10-19T08:52:09.698Z,97835.22
2023-10-19T08:54:37.349Z,97836.97
2023-10-19T08:57:04.943Z,97835.13
2023-10-19T08:59:33.093Z,97824.09
2023-10-19T09:02:04.500Z,97832.16
2023-10-19T09:04:32.398Z,97829.59
2023-10-19T09:07:00.225Z,97834.72
2023-10-19T09:09:29.774Z,97823.19
2023-10-19T09:11:57.369Z,97838.38
2023-10-19T09:14:42.740Z,97844.72
2023-10-19T09:17:13.529Z,97854.94
2023-10-19T09:19:43.096Z,97850.06
2023-10-19T09:22:10.529Z,97850.84
2023-10-19T09:24:39.488Z,97847.69
2023-10-19T09:27:07.158Z,97849.22
2023-10-19T09:29:34.836Z,97857.59
2023-10-19T09:32:04.890Z,97862.22
2023-10-19T09:34:34.260Z,97855.16
2023-10-19T09:37:02.562Z,97854.00
2023-10-19T09:39:30.232Z,97863.75
2023-10-19T09:42:01.447Z,97869.88
2023-10-19T09:44:31.926Z,97870.09
2023-10-19T09:47:02.385Z,97863.88
2023-10-19T09:49:30.885Z,97880.47
2023-10-19T09:52:08.994Z,97884.34
2023-10-19T09:54:46.653Z,97881.63
2023-10-19T09:57:20.940Z,97881.91
2023-10-19T09:59:55.097Z,97883.84
2023-10-19T10:02:24.463Z,97888.63
2023-10-19T10:04:54.230Z,97881.16
2023-10-19T10:07:36.072Z,97897.47
2023-10-19T10:10:10.463Z,97897.53
2023-10-19T10:12:39.526Z,97901.03
2023-10-19T10:15:07.844Z,97906.06
2023-10-19T10:17:36.523Z,97906.03
2023-10-19T10:20:31.407Z,97902.00
2023-10-19T10:23:23.182Z,97904.53
2023-10-19T10:25:51.938Z,97901.69
2023-10-19T10:28:21.253Z,97913.38
2023-10-19T10:31:10.716Z,97902.31
2023-10-19T10:33:43.281Z,97904.63
2023-10-19T10:36:11.039Z,97923.84
2023-10-19T10:38:38.764Z,97925.00
2023-10-19T10:41:06.447Z,97921.00
2023-10-19T10:43:36.151Z,97920.91
2023-10-19T10:46:05.705Z,97918.22
2023-10-19T10:48:33.280Z,97924.13
2023-10-19T10:51:00.927Z,97926.34
2023-10-19T10:53:28.536Z,97940.41
2023-10-19T10:55:56.135Z,97942.63
2023-10-19T10:58:25.481Z,97944.25
2023-10-19T11:00:54.560Z,97947.97
2023-10-19T11:03:22.198Z,97945.75
2023-10-19T11:05:49.893Z,97948.16
2023-10-19T11:08:17.883Z,97952.53
2023-10-19T11:10:46.541Z,97946.88
2023-10-19T11:13:15.729Z,97946.97
2023-10-19T11:15:50.747Z,97947.31
2023-10-19T11:18:31.687Z,97958.69
2023-10-19T11:21:00.062Z,97945.72
2023-10-19T11:23:38.474Z,97959.19
2023-10-19T11:26:06.656Z,97960.63
2023-10-19T11:28:34.878Z,97955.75
2023-10-19T11:31:19.205Z,97962.81
2023-10-19T11:33:48.627Z,97963.03
2023-10-19T11:36:17.756Z,97963.03
2023-10-19T11:38:47.374Z,97958.66
2023-10-19T11:41:15.172Z,97962.38
2023-10-19T11:43:44.078Z,97969.22
2023-10-19T11:46:11.908Z,97973.53
2023-10-19T11:48:40.619Z,97964.81
2023-10-19T11:51:10.812Z,97964.00
2023-10-19T11:53:39.958Z,97973.13
2023-10-19T11:56:09.219Z,97968.22
2023-10-19T11:58:38.244Z,97974.50
2023-10-19T12:01:07.085Z,97961.09
2023-10-19T12:03:34.705Z,97964.22
2023-10-19T12:06:02.903Z,97974.44
2023-10-19T12:08:33.000Z,97979.97
2023-10-19T12:11:00.830Z,97970.25
2023-10-19T12:13:29.047Z,97974.44
2023-10-19T12:15:57.574Z,97974.34
2023-10-19T12:18:25.204Z,97975.63
2023-10-19T12:20:53.051Z,97976.22
2023-10-19T12:23:20.832Z,97969.88
2023-10-19T12:25:56.664Z,97979.47
2023-10-19T12:28:25.289Z,97977.78
2023-10-19T12:30:53.139Z,97990.09
2023-10-19T12:33:21.011Z,97995.31
2023-10-19T12:35:49.219Z,97991.97
2023-10-19T12:38:17.010Z,97987.13
2023-10-19T12:40:45.404Z,97992.78
2023-10-19T12:43:15.900Z,97985.09
2023-10-19T12:45:44.591Z,97997.75
2023-10-19T12:48:12.362Z,98005.25
2023-10-19T12:50:40.201Z,98002.63
2023-10-19T12:53:07.920Z,98011.97
2023-10-19T12:55:35.853Z,98007.34
2023-10-19T12:58:03.485Z,98004.63
2023-10-19T13:00:34.215Z,98015.16
2023-10-19T13:03:02.413Z,98013.63
2023-10-19T13:05:33.642Z,98010.69
2023-10-19T13:08:01.993Z,98017.75
2023-10-19T13:10:30.305Z,98019.69
2023-10-19T13:12:58.456Z,98026.63
2023-10-19T13:15:25.960Z,98035.28
2023-10-19T13:17:55.592Z,98030.59
2023-10-19T13:20:23.309Z,98030.25
2023-10-19T13:22:50.890Z,98029.25
2023-10-19T13:25:18.507Z,98036.56
2023-10-19T13:27:47.194Z,98027.06
2023-10-19T13:30:14.733Z,98033.50
2023-10-19T13:32:42.934Z,98036.19
2023-10-19T13:35:13.337Z,98042.47
2023-10-19T13:37:41.532Z,98043.31
2023-10-19T13:40:09.898Z,98040.34
2023-10-19T13:42:38.629Z,98046.28
2023-10-19T13:45:08.137Z,98043.31
2023-10-19T13:47:35.651Z,98043.59
2023-10-19T13:50:03.504Z,98050.28
2023-10-19T13:52:32.575Z,98053.19
2023-10-19T13:55:00.413Z,98059.59
2023-10-19T13:57:28.039Z,98054.56
2023-10-19T13:59:55.544Z,98060.56
2023-10-19T14:02:23.695Z,98061.81
2023-10-19T14:04:52.461Z,98060.06
2023-10-19T14:07:20.035Z,98066.84
2023-10-19T14:09:49.050Z,98068.63
2023-10-19T14:12:16.691Z,98074.03
2023-10-19T14:14:44.220Z,98071.38
2023-10-19T14:17:11.862Z,98072.16
2023-10-19T14:19:40.711Z,98071.53
2023-10-19T14:22:08.219Z,98070.97
2023-10-19T14:24:36.298Z,98066.66
2023-10-19T14:27:06.485Z,98078.19
2023-10-19T14:29:34.014Z,98069.16
2023-10-19T14:32:01.653Z,98078.91
2023-10-19T14:34:30.619Z,98075.44
2023-10-19T14:36:58.347Z,98074.81
2023-10-19T14:39:26.419Z,98073.38
2023-10-19T14:41:54.604Z,98082.47
2023-10-19T14:44:24.116Z,98077.03
2023-10-19T14:46:51.762Z,98081.72
2023-10-19T14:49:19.570Z,98088.00
2023-10-19T14:51:47.201Z,98076.69
2023-10-19T14:54:32.959Z,98085.22
2023-10-19T14:57:00.705Z,98087.91
2023-10-19T14:59:28.301Z,98090.59
2023-10-19T15:01:56.073Z,98087.88
2023-10-19T15:04:23.646Z,98085.59
2023-10-19T15:06:51.239Z,98088.94
2023-10-19T15:09:20.069Z,98086.91
2023-10-19T15:11:49.712Z,98095.84
2023-10-19T15:14:17.458Z,98090.47
2023-10-19T15:16:46.187Z,98092.84
2023-10-19T15:19:14.315Z,98100.13
2023-10-19T15:21:42.665Z,98087.13
2023-10-19T15:24:10.833Z,98088.41
2023-10-19T15:26:39.155Z,98096.09
2023-10-19T15:29:08.750Z,98095.41
2023-10-19T15:31:37.826Z,98105.22
2023-10-19T15:34:05.487Z,98100.13
2023-10-19T15:36:33.578Z,98098.94
2023-10-19T15:39:02.275Z,98104.56
2023-10-19T15:41:30.389Z,98107.31
2023-10-19T15:43:57.945Z,98106.25
2023-10-19T15:46:27.048Z,98104.72
2023-10-19T15:48:54.646Z,98108.53
2023-10-19T15:51:22.177Z,98102.00
2023-10-19T15:53:50.347Z,98102.13
2023-10-19T15:56:18.485Z,98106.13
2023-10-19T15:58:46.084Z,98105.84
2023-10-19T16:01:14.071Z,98107.53
2023-10-19T16:03:43.319Z,98108.06
2023-10-19T16:06:10.892Z,98110.47
2023-10-19T16:08:39.549Z,98121.84
2023-10-19T16:11:07.709Z,98114.47
2023-10-19T16:13:35.930Z,98114.59
2023-10-19T16:16:03.980Z,98125.09
2023-10-19T16:18:31.663Z,98122.34
2023-10-19T16:21:00.662Z,98126.97
2023-10-19T16:23:28.297Z,98124.00
2023-10-19T16:26:04.326Z,98123.28
2023-10-19T16:28:32.200Z,98130.00
2023-10-19T16:31:03.871Z,98129.53
2023-10-19T16:33:32.542Z,98127.63
2023-10-19T16:36:01.547Z,98135.53
2023-10-19T16:38:29.639Z,98133.50
2023-10-19T16:41:01.724Z,98134.47
2023-10-19T16:43:29.501Z,98138.47
2023-10-19T16:46:00.132Z,98130.97
2023-10-19T16:48:28.365Z,98131.44
2023-10-19T16:50:55.855Z,98135.22
2023-10-19T16:53:24.926Z,98133.81
2023-10-19T16:55:59.453Z,98136.13
2023-10-19T16:58:27.588Z,98135.16
2023-10-19T17:00:56.492Z,98134.97
2023-10-19T17:03:27.038Z,98143.84
2023-10-19T17:05:55.179Z,98134.97
2023-10-19T17:08:24.244Z,98138.16
2023-10-19T17:10:52.727Z,98134.44
2023-10-19T17:13:20.856Z,98130.38
2023-10-19T17:15:48.947Z,98143.09
2023-10-19T17:18:16.589Z,98140.41
2023-10-19T17:20:44.323Z,98143.16
2023-10-19T17:23:11.916Z,98147.25
2023-10-19T17:25:41.120Z,98147.66
2023-10-19T17:28:08.735Z,98148.28
2023-10-19T17:30:36.909Z,98150.06
2023-10-19T17:33:11.979Z,98139.25
2023-10-19T17:35:41.148Z,98142.13
2023-10-19T17:38:08.849Z,98144.75
2023-10-19T17:40:36.564Z,98147.88
2023-10-19T17:43:05.720Z,98145.91
2023-10-19T17:45:33.859Z,98142.69
2023-10-19T17:48:01.429Z,98151.94
2023-10-19T17:50:29.538Z,98148.41
2023-10-19T17:52:57.201Z,98143.53
2023-10-19T17:55:24.831Z,98147.94
2023-10-19T17:57:52.352Z,98139.88
2023-10-19T18:00:22.646Z,98146.53
2023-10-19T18:02:49.861Z,98140.47
2023-10-19T18:05:18.173Z,98142.00
2023-10-19T18:07:47.125Z,98146.53
2023-10-19T18:10:14.646Z,98139.09
2023-10-19T18:12:42.181Z,98148.31
2023-10-19T18:15:11.221Z,98148.44
2023-10-19T18:17:40.169Z,98141.72
2023-10-19T18:20:09.765Z,98130.84
2023-10-19T18:22:37.642Z,98134.47
2023-10-19T18:25:05.992Z,98141.03
2023-10-19T18:27:34.020Z,98133.41
2023-10-19T18:30:02.885Z,98135.69
2023-10-19T18:32:30.430Z,98132.41
2023-10-19T18:35:00.187Z,98133.94
2023-10-19T18:37:28.854Z,98134.88
2023-10-19T18:39:56.932Z,98133.56
2023-10-19T18:42:24.472Z,98137.91
2023-10-19T18:44:53.244Z,98146.34
2023-10-19T18:47:21.345Z,98142.81
2023-10-19T18:49:49.147Z,98136.28
2023-10-19T18:52:18.183Z,98144.56
2023-10-19T18:54:46.512Z,98136.81
2023-10-19T18:57:14.066Z,98143.78
2023-10-19T18:59:42.131Z,98134.56
2023-10-19T19:02:10.214Z,98140.47
2023-10-19T19:04:40.169Z,98142.88
2023-10-19T19:07:10.081Z,98146.59
2023-10-19T19:09:39.231Z,98140.59
2023-10-19T19:12:07.197Z,98144.69
2023-10-19T19:14:35.397Z,98134.00
2023-10-19T19:17:03.652Z,98140.00
2023-10-19T19:19:33.152Z,98131.66
2023-10-19T19:22:01.006Z,98134.91
2023-10-19T19:24:28.504Z,98137.09
2023-10-19T19:26:57.543Z,98131.38
2023-10-19T19:29:25.279Z,98138.09
2023-10-19T19:31:52.829Z,98138.16
2023-10-19T19:34:20.429Z,98140.72
2023-10-19T19:36:48.623Z,98140.22
2023-10-19T19:39:16.743Z,98143.53
2023-10-19T19:41:44.740Z,98138.16
2023-10-19T19:44:14.017Z,98147.94
2023-10-19T19:46:41.672Z,98138.72
2023-10-19T19:49:09.210Z,98149.34
2023-10-19T19:51:37.016Z,98128.75
2023-10-19T19:54:04.990Z,98130.69
2023-10-19T19:56:32.491Z,98130.28
2023-10-19T19:59:00.683Z,98129.06
2023-10-19T20:01:30.264Z,98130.72
2023-10-19T20:03:57.792Z,98130.72
2023-10-19T20:06:26.489Z,98137.88
2023-10-19T20:08:54.596Z,98135.84
2023-10-19T20:11:22.193Z,98128.28
2023-10-19T20:13:50.896Z,98136.31
2023-10-19T20:16:19.324Z,98137.78
2023-10-19T20:18:48.478Z,98137.28
2023-10-19T20:21:16.216Z,98139.09
2023-10-19T20:23:43.792Z,98141.25
2023-10-19T20:26:11.318Z,98131.56
2023-10-19T20:28:39.947Z,98133.16
2023-10-19T20:31:08.072Z,98144.34
2023-10-19T20:33:35.563Z,98145.47
2023-10-19T20:36:06.112Z,98135.78
2023-10-19T20:38:34.162Z,98144.19
2023-10-19T20:41:02.270Z,98141.50
2023-10-19T20:43:30.399Z,98144.00
2023-10-19T20:45:58.511Z,98139.38
2023-10-19T20:48:26.193Z,98147.84
2023-10-19T20:50:53.819Z,98145.00
2023-10-19T20:53:22.964Z,98138.53
2023-10-19T20:55:50.648Z,98138.09
2023-10-19T20:58:18.144Z,98141.75
2023-10-19T21:00:45.720Z,98134.31
2023-10-19T21:03:13.946Z,98138.69
2023-10-19T21:05:41.525Z,98128.41
2023-10-19T21:08:09.608Z,98145.44
2023-10-19T21:10:39.290Z,98143.56
2023-10-19T21:13:06.875Z,98143.09
2023-10-19T21:15:34.949Z,98144.84
2023-10-19T21:18:03.612Z,98135.41
2023-10-19T21:20:31.806Z,98133.03
2023-10-19T21:22:59.412Z,98133.44
2023-10-19T21:25:28.182Z,98133.94
2023-10-19T21:27:57.744Z,98131.78
2023-10-19T21:30:25.533Z,98134.47
2023-10-19T21:32:54.297Z,98131.31
2023-10-19T21:35:22.507Z,98136.75
2023-10-19T21:37:50.065Z,98128.69
2023-10-19T21:40:18.220Z,98127.41
2023-10-19T21:42:47.673Z,98126.56
2023-10-19T21:45:17.463Z,98129.44
2023-10-19T21:47:45.418Z,98118.81
2023-10-19T21:50:13.489Z,98119.47
2023-10-19T21:52:41.320Z,98117.69
2023-10-19T21:55:09.357Z,98103.53
2023-10-19T21:57:36.922Z,98109.19
2023-10-19T22:00:04.793Z,98104.66
2023-10-19T22:02:34.040Z,98108.41
2023-10-19T22:05:10.383Z,98103.22
2023-10-19T22:07:50.134Z,98104.72
2023-10-19T22:10:18.367Z,98104.28
2023-10-19T22:12:45.870Z,98101.56
2023-10-19T22:15:15.559Z,98101.81
2023-10-19T22:17:45.343Z,98102.41
2023-10-19T22:20:13.748Z,98101.25
2023-10-19T22:22:41.453Z,98109.44
2023-10-19T22:25:09.544Z,98108.81
2023-10-19T22:27:37.238Z,98111.69
2023-10-19T22:30:06.997Z,98113.16
2023-10-19T22:32:35.266Z,98108.50
2023-10-19T22:35:04.642Z,98109.25
2023-10-19T22:37:36.513Z,98114.47
2023-10-19T22:40:05.443Z,98108.72
2023-10-19T22:42:32.961Z,98106.22
2023-10-19T22:45:01.261Z,98105.41
2023-10-19T22:47:29.517Z,98114.03
2023-10-19T22:49:57.266Z,98113.78
2023-10-19T22:52:26.343Z,98118.09
2023-10-19T22:54:53.968Z,98118.38
2023-10-19T22:57:21.568Z,98120.97
2023-10-19T22:59:49.145Z,98118.53
2023-10-19T23:02:16.793Z,98107.56
2023-10-19T23:04:44.498Z,98118.25
2023-10-19T23:07:12.180Z,98105.56
2023-10-19T23:09:41.705Z,98110.06
2023-10-19T23:12:09.245Z,98097.16
2023-10-19T23:14:36.960Z,98098.03
2023-10-19T23:17:04.691Z,98089.28
2023-10-19T23:19:32.292Z,98089.66
2023-10-19T23:21:59.844Z,98098.66
2023-10-19T23:24:27.505Z,98106.56
2023-10-19T23:26:56.515Z,98103.81
2023-10-19T23:29:24.120Z,98108.72
2023-10-19T23:31:51.776Z,98097.06
2023-10-19T23:34:19.858Z,98099.34
2023-10-19T23:36:47.957Z,98101.38
2023-10-19T23:39:16.052Z,98100.56
2023-10-19T23:41:44.250Z,98099.53
2023-10-19T23:44:13.987Z,98095.47
2023-10-19T23:46:41.643Z,98096.78
2023-10-19T23:49:09.773Z,98100.28
2023-10-19T23:51:37.749Z,98107.47
2023-10-19T23:54:06.139Z,98104.78
2023-10-19T23:56:34.270Z,98090.94
2023-10-19T23:59:02.386Z,98102.09
